createdAt,value
2023-02-25T00:01:41.716Z,3.20
2023-02-25T00:04:11.566Z,3.20
2023-02-25T00:09:11.267Z,3.20
2023-02-25T00:11:38.583Z,3.30
2023-02-25T00:14:05.929Z,3.60
2023-02-25T00:16:33.311Z,3.00
2023-02-25T00:19:00.353Z,3.40
2023-02-25T00:24:04.489Z,3.50
2023-02-25T00:26:41.544Z,3.60
2023-02-25T00:29:08.553Z,3.40
2023-02-25T00:31:36.010Z,3.40
2023-02-25T00:34:03.050Z,3.60
2023-02-25T00:36:30.480Z,3.30
2023-02-25T00:38:58.160Z,3.50
2023-02-25T00:41:28.257Z,3.30
2023-02-25T00:44:02.066Z,3.50
2023-02-25T00:46:30.940Z,3.20
2023-02-25T00:48:58.999Z,2.80
2023-02-25T00:51:29.859Z,3.10
2023-02-25T00:53:57.255Z,3.40
2023-02-25T00:56:26.629Z,3.50
2023-02-25T00:58:53.836Z,3.10
2023-02-25T01:01:33.619Z,3.20
2023-02-25T01:04:01.073Z,3.30
2023-02-25T01:06:29.860Z,3.40
2023-02-25T01:08:58.647Z,3.00
2023-02-25T01:11:32.838Z,3.00
2023-02-25T01:14:03.157Z,3.20
2023-02-25T01:16:32.705Z,3.00
2023-02-25T01:19:02.639Z,3.10
2023-02-25T01:21:34.139Z,3.10
2023-02-25T01:24:04.408Z,3.20
2023-02-25T01:26:34.230Z,3.10
2023-02-25T01:29:01.486Z,3.50
2023-02-25T01:31:32.001Z,2.70
2023-02-25T01:34:00.190Z,3.30
2023-02-25T01:36:29.964Z,3.20
2023-02-25T01:38:58.822Z,3.00
2023-02-25T01:41:28.186Z,3.40
2023-02-25T01:44:18.503Z,3.20
2023-02-25T01:46:47.710Z,3.10
2023-02-25T01:49:36.156Z,3.20
2023-02-25T01:54:33.616Z,2.80
2023-02-25T01:57:01.810Z,3.20
2023-02-25T01:59:30.578Z,2.40
2023-02-25T02:01:58.651Z,3.10
2023-02-25T02:04:28.626Z,3.50
2023-02-25T02:06:56.546Z,3.60
2023-02-25T02:09:27.463Z,3.30
2023-02-25T02:12:00.111Z,3.50
2023-02-25T02:14:33.020Z,3.20
2023-02-25T02:17:38.286Z,3.20
2023-02-25T02:20:14.473Z,3.90
2023-02-25T02:23:03.992Z,3.00
2023-02-25T02:25:51.601Z,3.00
2023-02-25T02:28:38.459Z,3.30
2023-02-25T02:31:34.128Z,4.20
2023-02-25T02:34:30.365Z,3.50
2023-02-25T02:37:09.020Z,3.10
2023-02-25T02:40:15.267Z,3.20
2023-02-25T02:43:17.656Z,3.40
2023-02-25T02:45:56.242Z,3.30
2023-02-25T02:48:32.211Z,3.40
2023-02-25T02:51:02.980Z,3.30
2023-02-25T02:53:41.026Z,3.30
2023-02-25T02:56:12.334Z,3.20
2023-02-25T02:58:44.386Z,3.20
2023-02-25T03:01:18.353Z,2.90
2023-02-25T03:03:59.812Z,3.40
2023-02-25T03:06:33.327Z,3.40
2023-02-25T03:09:10.536Z,3.50
2023-02-25T03:17:08.780Z,3.40
2023-02-25T03:19:42.119Z,3.50
2023-02-25T03:22:14.165Z,3.30
2023-02-25T03:24:55.503Z,3.40
2023-02-25T03:27:39.644Z,3.20
2023-02-25T03:30:15.340Z,3.50
2023-02-25T03:32:47.993Z,3.30
2023-02-25T03:35:18.868Z,3.40
2023-02-25T03:37:50.246Z,3.20
2023-02-25T03:40:19.609Z,3.30
2023-02-25T03:42:54.554Z,3.20
2023-02-25T03:45:22.931Z,3.40
2023-02-25T03:47:51.061Z,3.30
2023-02-25T03:50:30.960Z,3.30
2023-02-25T03:53:03.829Z,3.30
2023-02-25T03:55:48.508Z,3.40
2023-02-25T03:58:16.060Z,3.40
2023-02-25T04:00:46.083Z,3.30
2023-02-25T04:03:13.530Z,3.30
2023-02-25T04:08:15.702Z,3.40
2023-02-25T04:10:44.235Z,2.90
2023-02-25T04:13:14.998Z,3.20
2023-02-25T04:18:10.113Z,3.20
2023-02-25T04:20:37.216Z,4.10
2023-02-25T04:23:04.742Z,3.30
2023-02-25T04:25:31.739Z,3.10
2023-02-25T04:27:59.193Z,3.10
2023-02-25T04:30:26.563Z,3.50
2023-02-25T04:32:54.039Z,3.50
2023-02-25T04:35:21.020Z,3.20
2023-02-25T04:37:48.280Z,3.70
2023-02-25T04:40:19.067Z,3.30
2023-02-25T04:42:46.829Z,3.60
2023-02-25T04:45:15.266Z,3.30
2023-02-25T04:47:45.466Z,3.10
2023-02-25T04:50:13.285Z,3.40
2023-02-25T04:52:40.693Z,3.30
2023-02-25T04:55:09.836Z,3.20
2023-02-25T04:57:42.298Z,3.10
2023-02-25T05:00:15.580Z,3.50
2023-02-25T05:02:43.478Z,3.30
2023-02-25T05:05:11.227Z,3.50
2023-02-25T05:07:39.050Z,3.30
2023-02-25T05:10:07.897Z,3.20
2023-02-25T05:12:35.193Z,3.20
2023-02-25T05:15:05.251Z,3.50
2023-02-25T05:17:33.308Z,3.50
2023-02-25T05:24:55.753Z,3.20
2023-02-25T05:27:23.053Z,3.50
2023-02-25T05:29:51.533Z,3.20
2023-02-25T05:32:18.955Z,3.70
2023-02-25T05:34:46.050Z,3.40
2023-02-25T05:37:13.543Z,3.20
2023-02-25T05:39:40.532Z,3.20
2023-02-25T05:42:08.011Z,3.30
2023-02-25T05:51:58.165Z,3.50
2023-02-25T05:54:25.558Z,3.20
2023-02-25T05:56:53.365Z,3.30
2023-02-25T05:59:20.466Z,3.30
2023-02-25T06:01:48.437Z,3.40
2023-02-25T06:04:15.858Z,3.50
2023-02-25T06:06:43.243Z,3.20
2023-02-25T06:09:10.353Z,3.10
2023-02-25T06:11:37.771Z,3.30
2023-02-25T06:14:04.826Z,3.20
2023-02-25T06:16:32.842Z,3.40
2023-02-25T06:19:01.408Z,3.30
2023-02-25T06:21:29.752Z,3.20
2023-02-25T06:23:56.787Z,3.40
2023-02-25T06:26:24.440Z,3.30
2023-02-25T06:28:51.895Z,3.50
2023-02-25T06:31:20.637Z,3.50
2023-02-25T06:33:48.690Z,3.60
2023-02-25T06:36:16.665Z,3.70
2023-02-25T06:38:46.313Z,3.60
2023-02-25T06:41:16.564Z,3.50
2023-02-25T06:43:44.655Z,3.80
2023-02-25T06:46:14.561Z,3.70
2023-02-25T06:48:42.240Z,3.70
2023-02-25T06:51:11.362Z,3.80
2023-02-25T06:53:42.907Z,3.60
2023-02-25T06:56:13.034Z,3.80
2023-02-25T07:01:14.379Z,3.70
2023-02-25T07:03:44.702Z,3.80
2023-02-25T07:06:14.009Z,4.40
2023-02-25T07:08:41.327Z,4.00
2023-02-25T07:11:14.942Z,4.20
2023-02-25T07:13:43.391Z,3.70
2023-02-25T07:16:15.155Z,4.00
2023-02-25T07:18:42.876Z,3.80
2023-02-25T07:21:12.436Z,4.10
2023-02-25T07:26:09.583Z,4.20
2023-02-25T07:28:37.355Z,4.10
2023-02-25T07:31:13.396Z,4.40
2023-02-25T07:33:42.039Z,4.00
2023-02-25T07:36:11.097Z,4.30
2023-02-25T07:38:38.872Z,4.40
2023-02-25T07:41:11.951Z,4.20
2023-02-25T07:43:40.074Z,4.30
2023-02-25T07:46:09.350Z,4.80
2023-02-25T07:48:39.972Z,4.60
2023-02-25T07:51:12.754Z,4.20
2023-02-25T07:53:42.960Z,4.50
2023-02-25T07:56:11.281Z,4.50
2023-02-25T07:58:38.715Z,4.50
2023-02-25T08:01:11.138Z,4.50
2023-02-25T08:03:39.069Z,4.30
2023-02-25T08:06:08.284Z,5.20
2023-02-25T08:08:36.277Z,4.00
2023-02-25T08:11:08.445Z,4.10
2023-02-25T08:13:36.221Z,4.30
2023-02-25T08:16:09.034Z,3.80
2023-02-25T08:18:36.570Z,4.30
2023-02-25T08:21:04.607Z,4.40
2023-02-25T08:23:31.814Z,4.60
2023-02-25T08:25:59.635Z,4.50
2023-02-25T08:28:27.789Z,4.80
2023-02-25T08:33:24.016Z,4.70
2023-02-25T08:35:51.539Z,4.60
2023-02-25T08:38:19.248Z,4.90
2023-02-25T08:40:46.655Z,4.70
2023-02-25T08:43:13.771Z,5.10
2023-02-25T08:45:41.914Z,4.80
2023-02-25T08:48:09.898Z,5.50
2023-02-25T08:50:37.298Z,4.70
2023-02-25T08:53:04.329Z,4.90
2023-02-25T08:55:35.352Z,5.10
2023-02-25T08:58:04.697Z,5.30
2023-02-25T09:00:32.591Z,5.30
2023-02-25T09:02:59.786Z,5.30
2023-02-25T09:05:27.142Z,5.50
2023-02-25T09:07:55.406Z,5.50
2023-02-25T09:10:23.893Z,5.60
2023-02-25T09:12:51.009Z,5.70
2023-02-25T09:15:18.446Z,5.80
2023-02-25T09:17:47.811Z,6.10
2023-02-25T09:22:45.187Z,6.00
2023-02-25T09:25:13.887Z,6.00
2023-02-25T09:27:43.788Z,6.00
2023-02-25T09:30:11.484Z,6.00
2023-02-25T09:32:38.599Z,6.10
2023-02-25T09:35:07.544Z,6.00
2023-02-25T09:37:35.971Z,5.90
2023-02-25T09:40:08.373Z,6.70
2023-02-25T09:43:16.593Z,6.70
2023-02-25T09:45:47.621Z,5.90
2023-02-25T09:48:21.213Z,6.50
2023-02-25T09:50:57.006Z,6.80
2023-02-25T09:53:40.151Z,6.40
2023-02-25T09:56:12.138Z,6.20
2023-02-25T09:58:42.235Z,7.20
2023-02-25T10:01:24.905Z,7.30
2023-02-25T10:04:02.503Z,7.80
2023-02-25T10:06:36.178Z,7.70
2023-02-25T10:09:31.432Z,7.50
2023-02-25T10:12:13.266Z,7.80
2023-02-25T10:14:52.221Z,8.20
2023-02-25T10:17:44.356Z,7.70
2023-02-25T10:20:50.060Z,7.80
2023-02-25T10:23:54.869Z,7.70
2023-02-25T10:26:29.898Z,7.80
2023-02-25T10:29:04.410Z,7.60
2023-02-25T10:31:35.108Z,7.40
2023-02-25T10:34:26.069Z,7.40
2023-02-25T10:36:59.007Z,7.80
2023-02-25T10:39:28.602Z,10.00
2023-02-25T10:41:58.703Z,7.30
2023-02-25T10:44:26.093Z,7.60
2023-02-25T10:47:04.103Z,6.50
2023-02-25T10:49:38.282Z,7.30
2023-02-25T10:52:17.985Z,6.90
2023-02-25T10:54:51.136Z,7.50
2023-02-25T10:57:42.034Z,7.40
2023-02-25T11:00:31.266Z,7.40
2023-02-25T11:03:01.637Z,7.50
2023-02-25T11:05:37.683Z,7.70
2023-02-25T11:08:11.021Z,7.10
2023-02-25T11:10:39.851Z,7.70
2023-02-25T11:13:28.806Z,7.90
2023-02-25T11:15:58.114Z,8.30
2023-02-25T11:18:32.183Z,7.30
2023-02-25T11:21:08.850Z,7.40
2023-02-25T11:23:46.641Z,7.40
2023-02-25T11:26:37.139Z,6.80
2023-02-25T11:29:21.005Z,7.30
2023-02-25T11:31:52.232Z,7.00
2023-02-25T11:34:28.259Z,7.50
2023-02-25T11:36:55.685Z,7.70
2023-02-25T11:39:25.364Z,7.50
2023-02-25T11:41:55.579Z,7.30
2023-02-25T11:44:43.350Z,7.70
2023-02-25T11:47:14.297Z,6.90
2023-02-25T11:49:42.661Z,6.40
2023-02-25T11:52:13.345Z,6.30
2023-02-25T11:55:04.650Z,6.60
2023-02-25T11:57:47.434Z,7.00
2023-02-25T12:00:36.037Z,6.90
2023-02-25T12:03:40.555Z,7.00
2023-02-25T12:06:13.669Z,6.70
2023-02-25T12:08:57.027Z,6.80
2023-02-25T12:11:48.430Z,6.90
2023-02-25T12:14:34.579Z,6.60
2023-02-25T12:17:28.325Z,6.60
2023-02-25T12:20:30.704Z,6.50
2023-02-25T12:23:16.342Z,6.40
2023-02-25T12:26:21.750Z,6.30
2023-02-25T12:28:55.322Z,6.70
2023-02-25T12:31:31.575Z,6.80
2023-02-25T12:34:11.362Z,6.90
2023-02-25T12:36:41.408Z,7.20
2023-02-25T12:39:29.997Z,6.70
2023-02-25T12:42:06.244Z,6.30
2023-02-25T12:44:51.439Z,6.30
2023-02-25T12:47:25.756Z,5.90
2023-02-25T12:50:15.751Z,6.20
2023-02-25T12:53:01.181Z,6.00
2023-02-25T12:55:46.597Z,6.20
2023-02-25T12:58:40.185Z,6.20
2023-02-25T13:01:29.994Z,6.50
2023-02-25T13:04:22.721Z,6.10
2023-02-25T13:07:22.736Z,6.40
2023-02-25T13:10:05.018Z,6.10
2023-02-25T13:12:53.966Z,6.70
2023-02-25T13:15:30.661Z,7.50
2023-02-25T13:18:23.872Z,6.50
2023-02-25T13:21:25.800Z,6.40
2023-02-25T13:24:20.071Z,6.30
2023-02-25T13:27:11.244Z,5.10
2023-02-25T13:30:06.054Z,6.00
2023-02-25T13:32:58.329Z,5.80
2023-02-25T13:35:50.018Z,5.30
2023-02-25T13:38:39.017Z,5.00
2023-02-25T13:41:31.785Z,5.20
2023-02-25T13:43:59.052Z,5.20
2023-02-25T13:47:02.966Z,5.40
2023-02-25T13:49:51.035Z,5.40
2023-02-25T13:52:30.758Z,5.60
2023-02-25T13:55:32.483Z,5.40
2023-02-25T13:58:19.273Z,5.30
2023-02-25T14:01:19.151Z,5.50
2023-02-25T14:04:22.457Z,5.60
2023-02-25T14:07:32.841Z,5.40
2023-02-25T14:10:31.243Z,5.70
2023-02-25T14:13:12.879Z,5.60
2023-02-25T14:16:01.314Z,5.50
2023-02-25T14:18:45.382Z,5.30
2023-02-25T14:21:43.317Z,6.00
2023-02-25T14:24:23.509Z,5.40
2023-02-25T14:27:04.813Z,5.40
2023-02-25T14:29:43.136Z,5.30
2023-02-25T14:32:37.037Z,5.40
2023-02-25T14:35:18.034Z,5.40
2023-02-25T14:38:09.828Z,5.50
2023-02-25T14:41:01.119Z,5.50
2023-02-25T14:43:32.418Z,5.00
2023-02-25T14:46:29.771Z,4.80
2023-02-25T14:49:11.673Z,4.70
2023-02-25T14:52:03.904Z,4.90
2023-02-25T14:55:05.982Z,5.00
2023-02-25T14:57:51.516Z,4.90
2023-02-25T15:00:48.606Z,5.30
2023-02-25T15:03:22.417Z,4.90
2023-02-25T15:05:55.388Z,5.10
2023-02-25T15:08:34.366Z,4.50
2023-02-25T15:11:19.878Z,4.50
2023-02-25T15:14:21.694Z,4.70
2023-02-25T15:17:16.139Z,4.40
2023-02-25T15:19:49.762Z,4.30
2023-02-25T15:22:26.273Z,4.20
2023-02-25T15:25:19.996Z,3.80
2023-02-25T15:27:52.116Z,4.00
2023-02-25T15:30:22.757Z,3.50
2023-02-25T15:33:02.220Z,3.80
2023-02-25T15:35:35.457Z,3.60
2023-02-25T15:38:10.040Z,3.60
2023-02-25T15:40:51.108Z,3.40
2023-02-25T15:43:18.138Z,3.50
2023-02-25T15:45:51.421Z,3.30
2023-02-25T15:48:21.351Z,3.40
2023-02-25T15:50:48.705Z,3.40
2023-02-25T15:53:21.870Z,3.90
2023-02-25T15:56:03.495Z,3.40
2023-02-25T15:58:30.558Z,3.70
2023-02-25T16:01:00.005Z,3.30
2023-02-25T16:03:35.948Z,3.40
2023-02-25T16:06:20.069Z,3.20
2023-02-25T16:08:53.553Z,3.30
2023-02-25T16:11:35.749Z,3.60
2023-02-25T16:14:25.216Z,3.20
2023-02-25T16:16:57.541Z,3.20
2023-02-25T16:19:33.473Z,3.40
2023-02-25T16:22:19.284Z,3.00
2023-02-25T16:24:53.864Z,2.90
2023-02-25T16:27:52.943Z,3.50
2023-02-25T16:30:36.007Z,3.00
2023-02-25T16:33:18.794Z,3.00
2023-02-25T16:35:55.420Z,2.70
2023-02-25T16:38:39.490Z,3.10
2023-02-25T16:41:06.729Z,3.00
2023-02-25T16:43:38.084Z,2.80
2023-02-25T16:46:12.869Z,2.60
2023-02-25T16:48:45.854Z,2.90
2023-02-25T16:51:18.107Z,2.70
2023-02-25T16:53:46.920Z,2.70
2023-02-25T16:56:19.978Z,2.80
2023-02-25T16:59:09.117Z,2.80
2023-02-25T17:01:38.052Z,3.10
2023-02-25T17:04:17.241Z,2.90
2023-02-25T17:09:26.470Z,2.70
2023-02-25T17:11:55.801Z,2.60
2023-02-25T17:14:25.023Z,2.90
2023-02-25T17:16:56.009Z,2.60
2023-02-25T17:19:24.476Z,2.70
2023-02-25T17:21:56.203Z,2.50
2023-02-25T17:24:29.492Z,2.30
2023-02-25T17:26:57.206Z,2.70
2023-02-25T17:29:35.840Z,2.70
2023-02-25T17:32:18.375Z,2.40
2023-02-25T17:34:47.239Z,2.50
2023-02-25T17:37:16.177Z,2.40
2023-02-25T17:39:45.018Z,2.30
2023-02-25T17:42:34.632Z,2.30
2023-02-25T17:45:05.043Z,2.60
2023-02-25T17:47:37.539Z,2.20
2023-02-25T17:50:34.221Z,2.30
2023-02-25T17:53:01.185Z,2.30
2023-02-25T17:55:34.079Z,2.20
2023-02-25T17:58:03.181Z,2.50
2023-02-25T18:00:35.922Z,2.90
2023-02-25T18:03:16.994Z,2.30
2023-02-25T18:06:02.694Z,2.10
2023-02-25T18:08:30.490Z,2.20
2023-02-25T18:11:35.537Z,2.20
2023-02-25T18:14:20.963Z,2.40
2023-02-25T18:16:48.408Z,2.50
2023-02-25T18:19:24.547Z,2.00
2023-02-25T18:21:52.843Z,2.30
2023-02-25T18:24:34.834Z,2.20
2023-02-25T18:27:26.101Z,1.70
2023-02-25T18:29:57.818Z,1.90
2023-02-25T18:32:31.531Z,2.50
2023-02-25T18:34:58.636Z,2.00
2023-02-25T18:37:27.801Z,2.00
2023-02-25T18:39:54.808Z,1.60
2023-02-25T18:44:56.538Z,1.90
2023-02-25T18:47:23.962Z,1.60
2023-02-25T18:49:51.117Z,2.50
2023-02-25T18:52:25.036Z,2.20
2023-02-25T18:54:52.488Z,1.90
2023-02-25T18:57:25.238Z,2.10
2023-02-25T18:59:53.071Z,2.00
2023-02-25T19:02:32.729Z,1.80
2023-02-25T19:05:03.919Z,1.40
2023-02-25T19:07:34.335Z,1.90
2023-02-25T19:10:01.919Z,1.80
2023-02-25T19:12:31.520Z,1.40
2023-02-25T19:15:01.430Z,1.60
2023-02-25T19:17:29.874Z,1.60
2023-02-25T19:19:57.700Z,1.40
2023-02-25T19:22:25.280Z,1.70
2023-02-25T19:24:52.297Z,1.50
2023-02-25T19:27:31.823Z,1.50
2023-02-25T19:29:59.447Z,1.80
2023-02-25T19:32:28.888Z,1.70
2023-02-25T19:37:23.927Z,1.50
2023-02-25T19:39:51.109Z,1.60
2023-02-25T19:42:18.802Z,1.90
2023-02-25T19:44:45.844Z,1.90
2023-02-25T19:47:13.147Z,1.50
2023-02-25T19:49:40.205Z,1.60
2023-02-25T19:52:07.645Z,1.70
2023-02-25T19:54:34.688Z,1.30
2023-02-25T19:57:01.959Z,1.60
2023-02-25T19:59:30.629Z,1.50
2023-02-25T20:04:26.259Z,1.40
2023-02-25T20:06:58.888Z,1.30
2023-02-25T20:09:26.083Z,1.40
2023-02-25T20:16:52.571Z,1.10
2023-02-25T20:19:19.675Z,1.60
2023-02-25T20:21:47.261Z,1.00
2023-02-25T20:24:15.670Z,1.20
2023-02-25T20:26:45.789Z,1.10
2023-02-25T20:29:12.795Z,1.20
2023-02-25T20:31:40.543Z,0.90
2023-02-25T20:34:13.530Z,1.10
2023-02-25T20:37:14.635Z,1.00
2023-02-25T20:39:56.031Z,0.90
2023-02-25T20:42:27.600Z,1.10
2023-02-25T20:47:29.040Z,0.60
2023-02-25T20:49:58.197Z,0.20
2023-02-25T20:52:28.975Z,1.00
2023-02-25T20:57:26.843Z,0.90
2023-02-25T20:59:54.615Z,0.70
2023-02-25T21:02:22.281Z,0.80
2023-02-25T21:04:50.379Z,1.30
2023-02-25T21:07:18.179Z,0.80
2023-02-25T21:09:45.639Z,0.70
2023-02-25T21:12:13.201Z,0.60
2023-02-25T21:14:40.312Z,1.00
2023-02-25T21:17:13.725Z,1.10
2023-02-25T21:19:41.175Z,0.70
2023-02-25T21:22:08.898Z,0.60
2023-02-25T21:24:36.767Z,0.30
2023-02-25T21:27:04.318Z,0.90
2023-02-25T21:29:32.490Z,1.20
2023-02-25T21:31:59.884Z,1.00
2023-02-25T21:34:27.204Z,1.30
2023-02-25T21:36:58.332Z,0.90
2023-02-25T21:39:26.470Z,1.00
2023-02-25T21:41:54.079Z,1.00
2023-02-25T21:44:22.929Z,1.10
2023-02-25T21:46:50.317Z,1.00
2023-02-25T21:49:17.398Z,1.00
2023-02-25T21:51:44.997Z,0.40
2023-02-25T21:54:13.297Z,0.50
2023-02-25T21:56:41.143Z,1.00
2023-02-25T21:59:08.592Z,0.90
2023-02-25T22:01:39.006Z,1.00
2023-02-25T22:04:07.143Z,0.70
2023-02-25T22:06:34.639Z,1.10
2023-02-25T22:09:01.780Z,1.00
2023-02-25T22:11:32.778Z,1.10
2023-02-25T22:14:01.816Z,1.00
2023-02-25T22:18:57.282Z,0.70
2023-02-25T22:21:30.165Z,1.00
2023-02-25T22:23:59.633Z,1.00
2023-02-25T22:26:29.924Z,0.70
2023-02-25T22:28:59.491Z,1.30
2023-02-25T22:31:28.104Z,0.80
2023-02-25T22:33:56.560Z,1.20
2023-02-25T22:36:24.770Z,1.00
2023-02-25T22:38:52.736Z,0.60
2023-02-25T22:41:29.304Z,1.00
2023-02-25T22:43:58.311Z,1.10
2023-02-25T22:46:33.657Z,1.10
2023-02-25T22:49:00.685Z,0.90
2023-02-25T22:51:33.729Z,0.80
2023-02-25T22:54:00.898Z,0.60
2023-02-25T22:56:28.448Z,0.90
2023-02-25T22:58:55.990Z,0.70
2023-02-25T23:01:24.648Z,0.90
2023-02-25T23:03:53.122Z,0.90
2023-02-25T23:06:34.212Z,1.10
2023-02-25T23:09:09.308Z,0.80
2023-02-25T23:11:36.639Z,0.80
2023-02-25T23:14:04.092Z,1.00
2023-02-25T23:16:43.028Z,0.60
2023-02-25T23:19:14.023Z,1.00
2023-02-25T23:21:44.703Z,0.90
2023-02-25T23:24:19.624Z,0.70
2023-02-25T23:26:50.417Z,1.00
2023-02-25T23:31:47.984Z,1.10
2023-02-25T23:34:20.896Z,0.70
2023-02-25T23:39:16.396Z,0.90
2023-02-25T23:41:44.278Z,1.00
2023-02-25T23:44:13.150Z,0.90
2023-02-25T23:46:45.151Z,1.30
2023-02-25T23:49:14.623Z,0.80
2023-02-25T23:51:46.620Z,0.70
2023-02-25T23:54:16.755Z,0.80
2023-02-25T23:56:44.768Z,0.90
2023-02-25T23:59:12.494Z,1.70
